Time;durP1;ratioP1;P1;durP2;ratioP2;P2;SDS_P1;SDS_P2;PMS_P1;PMS_P2;Temp;Humidity;BMP_temperature;BMP_pressure;BME280_temperature;BME280_humidity;BME280_pressure;Samples;Min_cycle;Max_cycle;Signal;HPM_P1;HPM_P2
2022/06/17 00:01:23;;;;;;;13.02;10.52;;;;;;;;;;5009699;28;100387;-71
2022/06/17 00:03:51;;;;;;;21.85;10.95;;;;;;;;;;5009971;28;99681;-72
2022/06/17 00:06:22;;;;;;;11.63;10.52;;;;;;;;;;5010807;28;99191;-71
2022/06/17 00:08:51;;;;;;;15.48;10.55;;;;;;;;;;5010843;28;99160;-71
2022/06/17 00:11:20;;;;;;;16.90;10.68;;;;;;;;;;5013447;28;99450;-72
2022/06/17 00:13:47;;;;;;;18.63;11.07;;;;;;;;;;5010182;28;98946;-71
2022/06/17 00:16:15;;;;;;;22.77;11.98;;;;;;;;;;5008868;28;99951;-72
2022/06/17 00:18:42;;;;;;;17.00;11.20;;;;;;;;;;5010392;28;98562;-71
2022/06/17 00:21:26;;;;;;;13.55;12.18;;;;;;;;;;5011282;28;99600;-71
2022/06/17 00:23:53;;;;;;;16.55;11.27;;;;;;;;;;5008842;28;100156;-71
2022/06/17 00:26:19;;;;;;;14.93;13.20;;;;;;;;;;5010945;28;98600;-72
2022/06/17 00:28:48;;;;;;;15.02;12.15;;;;;;;;;;5009815;28;98907;-71
2022/06/17 00:31:14;;;;;;;13.02;11.75;;;;;;;;;;5009577;28;99096;-71
2022/06/17 00:33:42;;;;;;;14.77;12.40;;;;;;;;;;5012739;28;97816;-71
2022/06/17 00:36:13;;;;;;;17.50;11.88;;;;;;;;;;5005027;28;102173;-72
2022/06/17 00:38:39;;;;;;;17.50;12.52;;;;;;;;;;4989991;28;98550;-71
2022/06/17 00:41:12;;;;;;;13.20;11.95;;;;;;;;;;4989776;28;100175;-71
2022/06/17 00:43:40;;;;;;;18.52;12.13;;;;;;;;;;5003700;28;99183;-71
2022/06/17 00:46:24;;;;;;;20.48;12.63;;;;;;;;;;5009379;28;98526;-71
2022/06/17 00:49:11;;;;;;;17.60;13.27;;;;;;;;;;5010120;28;99070;-72
2022/06/17 00:51:44;;;;;;;16.17;13.98;;;;;;;;;;5007216;28;100366;-71
2022/06/17 00:54:30;;;;;;;17.02;12.98;;;;;;;;;;5008067;28;98565;-71
2022/06/17 00:56:57;;;;;;;19.13;14.48;;;;;;;;;;5012504;28;100848;-71
2022/06/17 00:59:24;;;;;;;21.95;13.80;;;;;;;;;;5010021;28;98625;-71
2022/06/17 01:01:50;;;;;;;28.88;13.38;;;;;;;;;;5008392;28;99830;-71
2022/06/17 01:04:24;;;;;;;15.27;13.77;;;;;;;;;;5007650;28;99907;-71
2022/06/17 01:07:11;;;;;;;19.40;12.93;;;;;;;;;;5007786;28;99394;-72
2022/06/17 01:12:26;;;;;;;17.67;13.65;;;;;;;;;;5007581;28;99175;-72
2022/06/17 01:14:52;;;;;;;19.48;13.10;;;;;;;;;;5007882;28;98675;-72
2022/06/17 01:17:19;;;;;;;15.57;13.90;;;;;;;;;;5008904;28;101764;-72
2022/06/17 01:20:00;;;;;;;14.65;13.27;;;;;;;;;;5010115;28;101710;-72
2022/06/17 01:22:50;;;;;;;15.90;13.63;;;;;;;;;;5007918;28;101696;-72
2022/06/17 01:25:17;;;;;;;18.73;13.60;;;;;;;;;;5008115;28;100923;-71
2022/06/17 01:27:48;;;;;;;15.65;13.23;;;;;;;;;;5007121;28;99271;-71
2022/06/17 01:30:16;;;;;;;16.85;13.43;;;;;;;;;;5007936;28;99164;-72
2022/06/17 01:32:53;;;;;;;15.05;13.55;;;;;;;;;;5006391;28;102883;-71
2022/06/17 01:35:20;;;;;;;14.70;13.25;;;;;;;;;;5009552;28;98503;-71
2022/06/17 01:37:47;;;;;;;18.00;12.40;;;;;;;;;;5009239;28;98803;-71
2022/06/17 01:40:13;;;;;;;13.95;12.57;;;;;;;;;;5006934;28;100568;-71
2022/06/17 01:42:40;;;;;;;16.08;13.30;;;;;;;;;;5012788;28;98606;-71
2022/06/17 01:45:08;;;;;;;17.98;13.07;;;;;;;;;;5006992;28;99544;-72
2022/06/17 01:47:36;;;;;;;15.10;12.18;;;;;;;;;;5008508;28;98514;-72
2022/06/17 01:50:09;;;;;;;15.98;12.63;;;;;;;;;;5009133;28;97893;-71
2022/06/17 01:52:46;;;;;;;17.20;13.10;;;;;;;;;;5006519;28;101014;-71
2022/06/17 01:55:22;;;;;;;18.27;13.43;;;;;;;;;;5007008;28;98617;-72
2022/06/17 01:57:52;;;;;;;13.38;12.02;;;;;;;;;;5007033;28;99965;-72
2022/06/17 02:00:21;;;;;;;;;;;;;;;;;;5007646;28;101686;-71
2022/06/17 02:02:49;;;;;;;17.45;12.93;;;;;;;;;;5011345;28;115464;-71
2022/06/17 02:05:17;;;;;;;16.83;13.20;;;;;;;;;;5006943;28;99433;-72
2022/06/17 02:07:55;;;;;;;14.25;12.52;;;;;;;;;;5007130;28;98667;-71
2022/06/17 02:10:27;;;;;;;15.43;13.15;;;;;;;;;;5007505;28;101750;-71
2022/06/17 02:12:55;;;;;;;16.27;13.48;;;;;;;;;;5006892;28;101608;-71
2022/06/17 02:15:23;;;;;;;15.95;13.85;;;;;;;;;;5007293;28;98658;-71
2022/06/17 02:18:12;;;;;;;14.65;12.48;;;;;;;;;;5007407;28;99289;-71
2022/06/17 02:20:42;;;;;;;14.40;12.35;;;;;;;;;;5006902;28;99897;-72
2022/06/17 02:23:09;;;;;;;16.20;13.25;;;;;;;;;;5005960;28;99546;-71
2022/06/17 02:25:37;;;;;;;13.90;12.25;;;;;;;;;;5023908;28;99756;-72
2022/06/17 02:28:05;;;;;;;14.30;12.95;;;;;;;;;;5028427;28;98537;-71
2022/06/17 02:30:32;;;;;;;21.38;13.43;;;;;;;;;;5028202;28;99034;-72
2022/06/17 02:33:00;;;;;;;17.67;12.98;;;;;;;;;;5027743;28;99424;-71
2022/06/17 02:35:33;;;;;;;14.82;13.32;;;;;;;;;;5008940;28;98712;-71
2022/06/17 02:38:00;;;;;;;14.30;13.10;;;;;;;;;;4987317;28;99871;-72
2022/06/17 02:40:38;;;;;;;14.32;12.88;;;;;;;;;;4987394;28;101161;-72
2022/06/17 02:43:06;;;;;;;15.05;13.35;;;;;;;;;;5005370;28;99875;-72
2022/06/17 02:45:35;;;;;;;14.68;13.18;;;;;;;;;;5006685;28;100173;-72
2022/06/17 02:48:04;;;;;;;24.27;13.02;;;;;;;;;;5009668;28;102462;-72
2022/06/17 02:50:32;;;;;;;14.15;12.85;;;;;;;;;;5006356;28;102531;-72
2022/06/17 02:53:00;;;;;;;15.82;13.15;;;;;;;;;;5006081;28;99270;-72
2022/06/17 02:55:27;;;;;;;17.58;13.43;;;;;;;;;;5006876;28;98697;-71
2022/06/17 02:57:59;;;;;;;17.67;13.23;;;;;;;;;;5006037;28;101916;-73
2022/06/17 03:00:26;;;;;;;18.17;13.45;;;;;;;;;;4986538;28;101736;-71
2022/06/17 03:02:55;;;;;;;16.27;13.48;;;;;;;;;;4986296;28;98575;-71
2022/06/17 03:05:29;;;;;;;16.05;13.88;;;;;;;;;;4986443;28;99957;-71
2022/06/17 03:07:57;;;;;;;18.70;13.52;;;;;;;;;;4987475;28;101825;-71
2022/06/17 03:10:30;;;;;;;14.98;13.57;;;;;;;;;;4993516;28;98705;-71
2022/06/17 03:13:01;;;;;;;13.95;12.50;;;;;;;;;;4988077;28;102169;-71
2022/06/17 03:15:28;;;;;;;14.60;13.00;;;;;;;;;;4996721;28;98585;-71
2022/06/17 03:17:54;;;;;;;14.85;13.27;;;;;;;;;;5043043;27;101632;-71
2022/06/17 03:20:23;;;;;;;19.02;12.93;;;;;;;;;;5011198;28;98987;-71
2022/06/17 03:22:52;;;;;;;13.98;12.55;;;;;;;;;;5009499;28;98687;-71
2022/06/17 03:25:40;;;;;;;15.45;13.32;;;;;;;;;;5009225;28;101418;-71
2022/06/17 03:28:07;;;;;;;16.85;12.80;;;;;;;;;;5009706;28;101535;-71
2022/06/17 03:30:37;;;;;;;15.13;13.63;;;;;;;;;;5010306;28;97869;-71
2022/06/17 03:33:25;;;;;;;14.20;12.63;;;;;;;;;;5022483;28;98764;-71
2022/06/17 03:35:55;;;;;;;13.90;12.40;;;;;;;;;;5009523;28;98615;-71
2022/06/17 03:38:40;;;;;;;13.98;12.35;;;;;;;;;;5009122;28;101713;-71
2022/06/17 03:41:14;;;;;;;12.48;11.38;;;;;;;;;;5007935;28;101203;-71
2022/06/17 03:43:48;;;;;;;15.68;12.02;;;;;;;;;;5009450;28;99068;-72
2022/06/17 03:46:16;;;;;;;14.73;13.23;;;;;;;;;;5008661;28;99144;-72
2022/06/17 03:48:43;;;;;;;17.73;12.27;;;;;;;;;;5008879;28;101083;-72
2022/06/17 03:51:11;;;;;;;13.65;12.40;;;;;;;;;;5009981;28;99652;-72
2022/06/17 03:53:37;;;;;;;20.13;12.32;;;;;;;;;;5008611;28;102257;-72
2022/06/17 03:56:03;;;;;;;13.80;12.57;;;;;;;;;;5012897;28;100956;-71
2022/06/17 03:58:33;;;;;;;13.88;12.45;;;;;;;;;;5009463;28;99240;-72
2022/06/17 04:01:02;;;;;;;17.38;12.50;;;;;;;;;;5007939;28;101875;-72
2022/06/17 04:03:31;;;;;;;14.73;13.05;;;;;;;;;;5008696;28;99320;-72
2022/06/17 04:06:07;;;;;;;14.32;12.80;;;;;;;;;;5009595;28;102409;-72
2022/06/17 04:08:49;;;;;;;18.23;13.23;;;;;;;;;;5008401;28;101161;-72
2022/06/17 04:11:15;;;;;;;14.15;12.65;;;;;;;;;;5009358;28;98676;-72
2022/06/17 04:13:42;;;;;;;18.48;12.63;;;;;;;;;;5008427;28;100084;-72
2022/06/17 04:16:17;;;;;;;14.45;13.02;;;;;;;;;;5011519;28;100279;-72
2022/06/17 04:18:43;;;;;;;17.05;12.63;;;;;;;;;;5007957;28;98701;-72
2022/06/17 04:21:12;;;;;;;13.68;12.23;;;;;;;;;;5008566;28;99434;-71
2022/06/17 04:23:40;;;;;;;15.70;12.48;;;;;;;;;;5010737;28;98593;-72
2022/06/17 04:26:19;;;;;;;17.98;12.73;;;;;;;;;;5009046;28;99950;-71
2022/06/17 04:28:52;;;;;;;13.60;11.25;;;;;;;;;;5007033;28;101374;-72
2022/06/17 04:31:24;;;;;;;13.63;12.18;;;;;;;;;;5009002;28;98598;-72
2022/06/17 04:33:56;;;;;;;16.23;12.15;;;;;;;;;;5008284;28;100873;-72
2022/06/17 04:36:42;;;;;;;13.50;12.15;;;;;;;;;;5007144;28;99163;-72
2022/06/17 04:39:28;;;;;;;15.60;11.75;;;;;;;;;;5012034;28;98581;-72
2022/06/17 04:42:36;;;;;;;13.65;12.10;;;;;;;;;;5008850;28;99624;-72
2022/06/17 04:45:03;;;;;;;18.40;11.82;;;;;;;;;;5000131;28;98696;-72
2022/06/17 04:47:33;;;;;;;13.60;12.20;;;;;;;;;;5009255;28;101923;-72
2022/06/17 04:50:08;;;;;;;14.90;12.43;;;;;;;;;;5007530;28;101511;-72
2022/06/17 04:52:42;;;;;;;18.38;11.68;;;;;;;;;;5008271;28;99453;-72
2022/06/17 04:55:21;;;;;;;22.77;11.57;;;;;;;;;;5008039;28;101515;-72
2022/06/17 04:58:15;;;;;;;12.73;11.15;;;;;;;;;;5017451;28;99448;-71
2022/06/17 05:00:47;;;;;;;12.38;11.02;;;;;;;;;;5028268;28;98662;-71
2022/06/17 05:03:15;;;;;;;12.60;11.50;;;;;;;;;;5029581;28;100239;-71
2022/06/17 05:05:50;;;;;;;12.85;11.63;;;;;;;;;;5007305;28;99853;-72
2022/06/17 05:08:23;;;;;;;13.10;11.40;;;;;;;;;;5008384;28;99110;-72
2022/06/17 05:10:52;;;;;;;14.60;10.52;;;;;;;;;;5007029;28;99292;-72
2022/06/17 05:13:30;;;;;;;16.33;10.18;;;;;;;;;;5008962;28;97886;-72
2022/06/17 05:15:58;;;;;;;13.65;10.80;;;;;;;;;;5007786;28;100604;-72
2022/06/17 05:18:24;;;;;;;17.70;10.88;;;;;;;;;;5040628;27;99424;-72
2022/06/17 05:21:02;;;;;;;12.25;9.10;;;;;;;;;;5012282;28;99310;-72
2022/06/17 05:23:29;;;;;;;9.55;8.73;;;;;;;;;;5009985;28;102080;-72
2022/06/17 05:25:56;;;;;;;16.05;10.40;;;;;;;;;;5012098;28;99451;-72
2022/06/17 05:28:23;;;;;;;12.00;9.43;;;;;;;;;;5008783;28;99086;-72
2022/06/17 05:30:56;;;;;;;10.50;9.48;;;;;;;;;;5007726;28;101477;-72
2022/06/17 05:33:32;;;;;;;9.98;9.07;;;;;;;;;;5008595;28;99309;-72
2022/06/17 05:35:59;;;;;;;10.60;9.48;;;;;;;;;;5011411;28;100871;-73
2022/06/17 05:38:26;;;;;;;14.50;9.77;;;;;;;;;;5007590;28;98268;-72
2022/06/17 05:40:53;;;;;;;11.98;10.10;;;;;;;;;;5000772;28;99162;-73
2022/06/17 05:43:20;;;;;;;11.52;9.60;;;;;;;;;;5007297;28;99236;-72
2022/06/17 05:45:46;;;;;;;9.65;8.50;;;;;;;;;;5008924;28;100073;-72
2022/06/17 05:48:24;;;;;;;11.70;9.15;;;;;;;;;;5011764;28;98562;-73
2022/06/17 05:50:56;;;;;;;12.73;8.07;;;;;;;;;;5007483;28;99051;-73
2022/06/17 05:53:28;;;;;;;10.45;7.88;;;;;;;;;;5008844;28;99091;-74
2022/06/17 05:56:03;;;;;;;11.65;7.95;;;;;;;;;;5008882;28;99995;-73
2022/06/17 05:58:30;;;;;;;13.00;8.02;;;;;;;;;;5008105;28;101875;-73
2022/06/17 06:00:58;;;;;;;11.43;7.43;;;;;;;;;;5007087;28;98650;-73
2022/06/17 06:03:25;;;;;;;12.10;7.95;;;;;;;;;;5008401;28;101186;-73
2022/06/17 06:05:54;;;;;;;15.73;8.20;;;;;;;;;;5007582;28;101147;-73
2022/06/17 06:08:23;;;;;;;13.10;8.40;;;;;;;;;;5007168;28;98652;-73
2022/06/17 06:10:50;;;;;;;8.18;7.22;;;;;;;;;;5010396;28;101321;-73
2022/06/17 06:13:22;;;;;;;10.02;7.55;;;;;;;;;;5007826;28;99215;-73
2022/06/17 06:15:49;;;;;;;15.00;8.50;;;;;;;;;;5007140;28;101214;-73
2022/06/17 06:18:23;;;;;;;10.27;7.28;;;;;;;;;;5007775;28;101647;-73
2022/06/17 06:20:50;;;;;;;10.85;6.53;;;;;;;;;;5006313;28;99713;-73
2022/06/17 06:23:22;;;;;;;9.50;6.93;;;;;;;;;;5008018;28;101816;-72
2022/06/17 06:25:49;;;;;;;10.77;6.13;;;;;;;;;;5007064;28;101965;-72
2022/06/17 06:28:17;;;;;;;7.07;6.40;;;;;;;;;;5007723;28;97853;-72
2022/06/17 06:30:50;;;;;;;9.93;6.40;;;;;;;;;;5010681;28;100427;-72
2022/06/17 06:33:17;;;;;;;7.57;6.88;;;;;;;;;;5007836;28;98833;-72
2022/06/17 06:35:43;;;;;;;9.57;6.63;;;;;;;;;;5008400;28;99894;-72
2022/06/17 06:38:10;;;;;;;14.43;5.90;;;;;;;;;;5008979;28;99059;-72
2022/06/17 06:40:38;;;;;;;7.07;5.00;;;;;;;;;;5007383;28;98621;-72
2022/06/17 06:43:10;;;;;;;7.35;5.75;;;;;;;;;;5008766;28;100055;-72
2022/06/17 06:45:54;;;;;;;7.18;5.68;;;;;;;;;;5011534;28;100005;-72
2022/06/17 06:48:22;;;;;;;7.00;6.05;;;;;;;;;;5011389;28;98581;-72
2022/06/17 06:50:49;;;;;;;9.40;5.72;;;;;;;;;;5011507;28;98839;-72
2022/06/17 06:53:15;;;;;;;7.07;4.85;;;;;;;;;;5014456;28;99366;-72
2022/06/17 06:55:42;;;;;;;9.18;5.72;;;;;;;;;;5010973;28;99468;-72
2022/06/17 06:58:08;;;;;;;7.80;5.63;;;;;;;;;;5010017;28;100134;-72
2022/06/17 07:00:41;;;;;;;17.03;5.73;;;;;;;;;;5010464;28;99385;-72
2022/06/17 07:03:08;;;;;;;8.27;5.15;;;;;;;;;;5010373;28;102291;-72
2022/06/17 07:05:36;;;;;;;6.80;5.63;;;;;;;;;;5012228;28;99334;-72
2022/06/17 07:08:03;;;;;;;11.30;5.90;;;;;;;;;;5010669;28;98765;-72
2022/06/17 07:10:32;;;;;;;9.13;5.63;;;;;;;;;;4996738;28;100228;-72
2022/06/17 07:12:59;;;;;;;5.90;5.30;;;;;;;;;;5000140;28;99935;-72
2022/06/17 07:15:27;;;;;;;10.75;5.03;;;;;;;;;;4997110;28;98636;-72
2022/06/17 07:18:02;;;;;;;11.63;5.25;;;;;;;;;;4996385;28;99530;-73
2022/06/17 07:20:36;;;;;;;9.82;5.15;;;;;;;;;;5010942;28;99195;-73
2022/06/17 07:23:04;;;;;;;8.68;4.50;;;;;;;;;;4993755;28;99988;-73
2022/06/17 07:25:30;;;;;;;10.93;5.05;;;;;;;;;;5010411;28;101003;-74
2022/06/17 07:27:56;;;;;;;7.88;4.35;;;;;;;;;;5000037;28;98509;-74
2022/06/17 07:30:23;;;;;;;7.30;4.03;;;;;;;;;;4991922;28;100194;-72
2022/06/17 07:32:50;;;;;;;10.45;4.10;;;;;;;;;;4990989;28;99250;-72
2022/06/17 07:35:16;;;;;;;11.32;4.68;;;;;;;;;;4992271;28;98559;-72
2022/06/17 07:40:28;;;;;;;9.63;4.30;;;;;;;;;;4992026;28;98971;-72
2022/06/17 07:42:55;;;;;;;8.70;4.20;;;;;;;;;;4992147;28;99240;-72
2022/06/17 07:45:23;;;;;;;8.13;4.25;;;;;;;;;;4990333;28;99502;-72
2022/06/17 07:47:50;;;;;;;5.05;4.03;;;;;;;;;;4991616;28;99551;-71
2022/06/17 07:50:25;;;;;;;4.03;3.63;;;;;;;;;;4991489;28;99994;-72
2022/06/17 07:52:51;;;;;;;6.45;4.25;;;;;;;;;;4990169;28;99176;-72
2022/06/17 07:55:20;;;;;;;5.35;4.00;;;;;;;;;;4991433;28;98572;-73
2022/06/17 07:57:47;;;;;;;4.28;3.88;;;;;;;;;;4990440;28;99507;-74
2022/06/17 08:00:34;;;;;;;4.97;4.07;;;;;;;;;;4994094;28;99249;-71
2022/06/17 08:03:06;;;;;;;5.90;3.90;;;;;;;;;;4992000;28;99003;-72
2022/06/17 08:05:35;;;;;;;7.10;4.38;;;;;;;;;;4991580;28;99140;-72
2022/06/17 08:08:07;;;;;;;5.83;4.07;;;;;;;;;;4991387;28;97992;-72
2022/06/17 08:10:35;;;;;;;10.90;3.85;;;;;;;;;;4991669;28;99602;-71
2022/06/17 08:13:03;;;;;;;6.07;3.40;;;;;;;;;;4973300;28;99596;-72
2022/06/17 08:15:31;;;;;;;6.45;3.53;;;;;;;;;;4998565;28;99384;-72
2022/06/17 08:17:59;;;;;;;8.02;3.63;;;;;;;;;;5011086;28;100503;-72
2022/06/17 08:20:29;;;;;;;6.57;3.47;;;;;;;;;;5010247;28;99173;-72
2022/06/17 08:22:56;;;;;;;8.90;3.50;;;;;;;;;;5013892;28;98503;-72
2022/06/17 08:25:26;;;;;;;8.88;3.38;;;;;;;;;;5010320;28;99192;-72
2022/06/17 08:27:53;;;;;;;4.65;2.92;;;;;;;;;;5008573;28;98600;-73
2022/06/17 08:30:23;;;;;;;8.13;2.83;;;;;;;;;;5009764;28;100037;-72
2022/06/17 08:32:55;;;;;;;;;;;;;;;;;;5010543;28;99723;-72
2022/06/17 08:35:22;;;;;;;6.07;3.15;;;;;;;;;;5010413;28;117338;-72
2022/06/17 08:37:53;;;;;;;7.00;3.00;;;;;;;;;;5009354;28;100093;-72
2022/06/17 08:40:32;;;;;;;6.03;3.20;;;;;;;;;;5009682;28;100233;-72
2022/06/17 08:43:12;;;;;;;4.63;3.08;;;;;;;;;;5013376;28;99001;-72
2022/06/17 08:45:45;;;;;;;3.33;2.70;;;;;;;;;;4998865;28;100586;-72
2022/06/17 08:48:33;;;;;;;8.45;2.90;;;;;;;;;;4990420;28;98579;-72
2022/06/17 08:51:18;;;;;;;3.50;3.10;;;;;;;;;;4989080;28;99122;-72
2022/06/17 08:53:48;;;;;;;7.63;3.70;;;;;;;;;;4989930;28;99772;-72
2022/06/17 08:56:31;;;;;;;9.25;3.58;;;;;;;;;;4990147;28;98949;-72
2022/06/17 08:59:29;;;;;;;5.68;3.65;;;;;;;;;;4989738;28;99660;-72
2022/06/17 09:02:28;;;;;;;6.70;3.75;;;;;;;;;;4989825;28;99236;-72
2022/06/17 09:05:15;;;;;;;10.20;3.58;;;;;;;;;;4988958;28;98566;-72
2022/06/17 09:07:49;;;;;;;6.40;3.55;;;;;;;;;;5002393;28;99478;-71
2022/06/17 09:10:30;;;;;;;4.18;3.35;;;;;;;;;;4988581;28;99600;-72
2022/06/17 09:13:01;;;;;;;12.93;3.40;;;;;;;;;;5005822;28;99034;-72
2022/06/17 09:15:41;;;;;;;11.35;3.50;;;;;;;;;;5009359;28;100353;-72
2022/06/17 09:18:34;;;;;;;7.57;3.17;;;;;;;;;;4989433;28;98646;-72
2022/06/17 09:21:09;;;;;;;5.03;3.40;;;;;;;;;;4987280;28;99303;-71
2022/06/17 09:23:40;;;;;;;3.33;3.03;;;;;;;;;;4989102;28;99960;-71
2022/06/17 09:26:14;;;;;;;6.32;3.60;;;;;;;;;;4989028;28;98045;-71
2022/06/17 09:28:45;;;;;;;6.97;2.88;;;;;;;;;;4988544;28;99370;-72
2022/06/17 09:31:18;;;;;;;7.65;3.20;;;;;;;;;;4992332;28;99808;-72
2022/06/17 09:34:05;;;;;;;3.60;3.30;;;;;;;;;;4987944;28;99774;-72
2022/06/17 09:36:37;;;;;;;6.38;3.13;;;;;;;;;;4989282;28;99167;-71
2022/06/17 09:39:15;;;;;;;8.60;3.22;;;;;;;;;;4989410;28;98594;-72
2022/06/17 09:42:04;;;;;;;9.32;3.20;;;;;;;;;;4989322;28;99825;-72
2022/06/17 09:44:55;;;;;;;6.05;3.25;;;;;;;;;;5010022;28;99183;-72
2022/06/17 09:47:36;;;;;;;4.13;3.10;;;;;;;;;;5009931;28;98616;-72
2022/06/17 09:50:15;;;;;;;9.82;2.80;;;;;;;;;;5008780;28;99089;-72
2022/06/17 09:52:59;;;;;;;5.95;2.75;;;;;;;;;;5008514;28;98937;-72
2022/06/17 09:55:36;;;;;;;7.05;2.92;;;;;;;;;;5011339;28;98643;-72
2022/06/17 09:58:18;;;;;;;4.05;2.75;;;;;;;;;;4998068;28;100190;-71
2022/06/17 10:00:47;;;;;;;4.82;3.05;;;;;;;;;;5014794;27;99255;-70
2022/06/17 10:03:34;;;;;;;5.00;2.70;;;;;;;;;;5009611;28;100627;-70
2022/06/17 10:06:06;;;;;;;5.28;2.65;;;;;;;;;;5008863;28;100223;-70
2022/06/17 10:08:52;;;;;;;4.65;2.50;;;;;;;;;;5009851;28;98939;-70
2022/06/17 10:11:29;;;;;;;8.73;3.03;;;;;;;;;;4979908;28;99741;-70
2022/06/17 10:14:01;;;;;;;4.15;3.03;;;;;;;;;;4988112;28;100898;-70
2022/06/17 10:19:45;;;;;;;7.03;2.80;;;;;;;;;;4995465;28;100244;-70
2022/06/17 10:22:30;;;;;;;4.82;2.85;;;;;;;;;;4981644;28;99020;-70
2022/06/17 10:24:57;;;;;;;3.85;2.55;;;;;;;;;;4992905;28;100670;-70
2022/06/17 10:27:23;;;;;;;4.85;2.92;;;;;;;;;;4990031;28;99956;-70
2022/06/17 10:30:12;;;;;;;12.63;3.55;;;;;;;;;;4990747;28;99996;-70
2022/06/17 10:32:41;;;;;;;10.02;3.10;;;;;;;;;;4991653;28;100481;-70
2022/06/17 10:35:13;;;;;;;5.93;2.90;;;;;;;;;;4991984;28;100732;-70
2022/06/17 10:37:40;;;;;;;4.50;2.97;;;;;;;;;;4995115;28;100216;-70
2022/06/17 10:40:25;;;;;;;6.00;3.08;;;;;;;;;;4999947;28;99795;-70
2022/06/17 10:42:53;;;;;;;2.92;2.40;;;;;;;;;;4991502;28;98642;-70
2022/06/17 10:45:20;;;;;;;10.15;2.80;;;;;;;;;;4992755;28;99206;-70
2022/06/17 10:47:59;;;;;;;4.15;2.75;;;;;;;;;;4989919;28;100295;-70
2022/06/17 10:50:28;;;;;;;11.13;3.42;;;;;;;;;;4993549;28;100182;-71
2022/06/17 10:53:14;;;;;;;268.70;19.40;;;;;;;;;;4990826;28;101028;-70
2022/06/17 10:55:46;;;;;;;7.10;3.40;;;;;;;;;;4990654;28;100643;-70
2022/06/17 10:58:19;;;;;;;5.60;2.78;;;;;;;;;;4996644;28;100297;-70
2022/06/17 11:00:52;;;;;;;4.15;2.55;;;;;;;;;;4993909;28;100045;-70
2022/06/17 11:03:24;;;;;;;3.17;2.78;;;;;;;;;;4994211;28;99176;-71
2022/06/17 11:05:52;;;;;;;4.43;2.95;;;;;;;;;;5000931;28;100226;-74
2022/06/17 11:08:23;;;;;;;4.70;3.00;;;;;;;;;;4994317;28;102392;-72
2022/06/17 11:10:54;;;;;;;5.28;3.15;;;;;;;;;;4988766;28;98420;-72
2022/06/17 11:13:20;;;;;;;4.22;2.90;;;;;;;;;;4989002;28;98711;-72
2022/06/17 11:15:50;;;;;;;4.38;2.75;;;;;;;;;;4988203;28;99378;-73
2022/06/17 11:18:25;;;;;;;7.78;2.85;;;;;;;;;;4986883;28;100292;-72
2022/06/17 11:21:14;;;;;;;4.20;2.80;;;;;;;;;;4988312;28;100942;-72
2022/06/17 11:23:44;;;;;;;7.28;2.92;;;;;;;;;;4987097;28;99927;-72
2022/06/17 11:26:12;;;;;;;5.32;3.28;;;;;;;;;;4992111;28;99575;-72
2022/06/17 11:28:40;;;;;;;5.32;2.70;;;;;;;;;;4989204;28;99781;-71
2022/06/17 11:31:15;;;;;;;4.55;2.88;;;;;;;;;;4990789;28;98645;-71
2022/06/17 11:34:05;;;;;;;5.80;2.92;;;;;;;;;;4991233;28;99348;-72
2022/06/17 11:36:33;;;;;;;6.93;2.67;;;;;;;;;;4981745;28;99539;-71
2022/06/17 11:39:19;;;;;;;8.50;3.33;;;;;;;;;;4990987;28;98573;-71
2022/06/17 11:41:45;;;;;;;6.18;2.88;;;;;;;;;;4990799;28;98870;-71
2022/06/17 11:44:13;;;;;;;4.57;2.92;;;;;;;;;;4991076;28;100685;-71
2022/06/17 11:46:48;;;;;;;4.82;2.83;;;;;;;;;;4989980;28;98640;-72
2022/06/17 11:49:17;;;;;;;5.35;2.53;;;;;;;;;;4993563;28;99435;-71
2022/06/17 11:51:49;;;;;;;3.58;2.22;;;;;;;;;;4990678;28;98501;-74
2022/06/17 11:54:26;;;;;;;6.13;2.60;;;;;;;;;;4991677;28;100231;-71
2022/06/17 11:56:54;;;;;;;4.07;1.83;;;;;;;;;;4990799;28;100277;-72
2022/06/17 11:59:27;;;;;;;5.55;2.60;;;;;;;;;;4990915;28;98612;-71
2022/06/17 12:01:53;;;;;;;9.85;2.50;;;;;;;;;;4991884;28;99846;-71
2022/06/17 12:04:36;;;;;;;2.97;2.22;;;;;;;;;;4991318;28;100323;-70
2022/06/17 12:07:18;;;;;;;6.05;2.60;;;;;;;;;;4990827;28;98561;-70
2022/06/17 12:09:46;;;;;;;9.82;2.53;;;;;;;;;;4997050;28;99985;-72
2022/06/17 12:12:14;;;;;;;6.40;2.60;;;;;;;;;;5014437;28;100236;-72
2022/06/17 12:14:53;;;;;;;7.78;2.47;;;;;;;;;;5010267;28;100039;-72
2022/06/17 12:17:20;;;;;;;3.47;2.30;;;;;;;;;;5011200;28;100313;-73
2022/06/17 12:19:52;;;;;;;4.45;2.72;;;;;;;;;;5010194;28;98511;-72
2022/06/17 12:22:21;;;;;;;9.43;2.85;;;;;;;;;;5011213;28;100052;-72
2022/06/17 12:24:52;;;;;;;6.00;2.63;;;;;;;;;;5009977;28;99818;-72
2022/06/17 12:27:28;;;;;;;2.75;1.90;;;;;;;;;;4991070;28;98123;-72
2022/06/17 12:30:19;;;;;;;4.75;2.42;;;;;;;;;;4991419;28;99323;-72
2022/06/17 12:32:51;;;;;;;3.73;2.30;;;;;;;;;;4990485;28;100645;-72
2022/06/17 12:35:30;;;;;;;4.07;2.30;;;;;;;;;;4993382;28;99210;-72
2022/06/17 12:38:05;;;;;;;4.68;1.85;;;;;;;;;;4990394;28;100507;-71
2022/06/17 12:40:34;;;;;;;6.57;2.60;;;;;;;;;;4989920;28;98638;-71
2022/06/17 12:43:04;;;;;;;5.53;2.25;;;;;;;;;;4990944;28;100118;-71
2022/06/17 12:45:37;;;;;;;5.45;1.85;;;;;;;;;;4989861;28;100332;-71
2022/06/17 12:48:12;;;;;;;5.40;1.70;;;;;;;;;;4990405;28;98547;-71
2022/06/17 12:54:02;;;;;;;2.63;1.63;;;;;;;;;;4968283;28;98706;-71
2022/06/17 12:57:01;;;;;;;4.53;1.73;;;;;;;;;;4987969;28;99280;-71
2022/06/17 12:59:36;;;;;;;4.03;1.60;;;;;;;;;;4953178;28;99350;-71
2022/06/17 13:02:07;;;;;;;10.65;1.67;;;;;;;;;;4989337;28;99249;-71
2022/06/17 13:04:40;;;;;;;6.53;1.63;;;;;;;;;;4990715;28;100777;-71
2022/06/17 13:07:25;;;;;;;2.17;1.73;;;;;;;;;;4989584;28;100552;-71
2022/06/17 13:13:24;;;;;;;7.70;1.90;;;;;;;;;;4990353;28;100126;-71
2022/06/17 13:15:50;;;;;;;5.22;1.85;;;;;;;;;;4954595;28;99735;-71
2022/06/17 13:18:29;;;;;;;4.78;1.52;;;;;;;;;;4989830;28;98954;-71
2022/06/17 13:20:58;;;;;;;3.22;1.90;;;;;;;;;;4993211;28;99978;-71
2022/06/17 13:23:43;;;;;;;1.92;1.80;;;;;;;;;;4989498;28;98655;-71
2022/06/17 13:26:16;;;;;;;4.30;1.52;;;;;;;;;;4990207;28;98814;-72
2022/06/17 13:28:49;;;;;;;2.33;1.58;;;;;;;;;;4989114;28;101032;-71
2022/06/17 13:31:33;;;;;;;2.35;1.75;;;;;;;;;;4989627;28;98663;-71
2022/06/17 13:34:02;;;;;;;2.58;1.77;;;;;;;;;;4989877;28;98883;-71
2022/06/17 13:36:33;;;;;;;5.32;1.60;;;;;;;;;;4989812;28;99268;-71
2022/06/17 13:39:09;;;;;;;2.72;1.70;;;;;;;;;;4989708;28;98524;-71
2022/06/17 13:41:39;;;;;;;4.28;1.67;;;;;;;;;;4989836;28;99758;-71
2022/06/17 13:44:24;;;;;;;5.72;1.80;;;;;;;;;;4992179;28;100270;-71
2022/06/17 13:47:10;;;;;;;6.93;1.70;;;;;;;;;;4989416;28;99855;-71
2022/06/17 13:49:36;;;;;;;3.58;1.67;;;;;;;;;;4989640;28;99444;-71
2022/06/17 13:52:21;;;;;;;3.20;1.73;;;;;;;;;;4989262;28;98545;-71
2022/06/17 13:54:59;;;;;;;4.88;1.77;;;;;;;;;;4989074;28;99329;-71
2022/06/17 13:57:29;;;;;;;2.90;1.60;;;;;;;;;;4989599;28;100277;-71
2022/06/17 13:59:57;;;;;;;2.75;1.63;;;;;;;;;;4989106;28;100105;-72
2022/06/17 14:02:26;;;;;;;1.80;1.52;;;;;;;;;;4989601;28;99274;-72
2022/06/17 14:05:01;;;;;;;6.13;1.70;;;;;;;;;;4989084;28;100093;-71
2022/06/17 14:07:47;;;;;;;1.83;1.50;;;;;;;;;;4992725;28;98541;-71
2022/06/17 14:10:25;;;;;;;4.65;1.67;;;;;;;;;;4999490;28;100110;-71
2022/06/17 14:12:52;;;;;;;3.13;1.42;;;;;;;;;;5009274;28;97808;-71
2022/06/17 14:15:28;;;;;;;1.75;1.65;;;;;;;;;;5009785;28;99067;-71
2022/06/17 14:17:56;;;;;;;2.53;1.55;;;;;;;;;;5008700;28;100313;-71
2022/06/17 14:20:25;;;;;;;4.95;1.65;;;;;;;;;;5008202;28;100097;-72
2022/06/17 14:23:03;;;;;;;2.70;1.42;;;;;;;;;;5009141;28;101084;-71
2022/06/17 14:25:50;;;;;;;3.13;1.60;;;;;;;;;;5001457;28;100444;-71
2022/06/17 14:28:32;;;;;;;5.53;1.90;;;;;;;;;;5008241;28;98479;-72
2022/06/17 14:30:58;;;;;;;;;;;;;;;;;;5012209;28;99103;-72
2022/06/17 14:33:37;;;;;;;2.75;1.50;;;;;;;;;;5008861;28;118146;-71
2022/06/17 14:36:07;;;;;;;6.10;1.70;;;;;;;;;;4998594;28;99171;-71
2022/06/17 14:38:35;;;;;;;13.18;1.90;;;;;;;;;;4995282;28;99641;-71
2022/06/17 14:43:48;;;;;;;2.55;1.33;;;;;;;;;;4989636;28;100713;-71
2022/06/17 14:46:14;;;;;;;3.13;1.45;;;;;;;;;;4992220;28;101109;-71
2022/06/17 14:48:49;;;;;;;3.60;1.90;;;;;;;;;;4992195;27;99185;-71
2022/06/17 14:51:33;;;;;;;3.58;1.65;;;;;;;;;;4994177;28;101097;-71
2022/06/17 14:54:09;;;;;;;6.65;1.60;;;;;;;;;;5002357;28;99654;-71
2022/06/17 14:56:37;;;;;;;4.10;1.73;;;;;;;;;;4988546;28;99034;-72
2022/06/17 14:59:22;;;;;;;1.88;1.45;;;;;;;;;;4988514;28;100318;-72
2022/06/17 15:01:50;;;;;;;4.90;1.85;;;;;;;;;;4987820;28;98993;-71
2022/06/17 15:04:26;;;;;;;2.97;1.45;;;;;;;;;;4991279;28;100303;-71
2022/06/17 15:06:53;;;;;;;2.95;1.70;;;;;;;;;;4997530;28;100182;-71
2022/06/17 15:09:24;;;;;;;5.28;2.47;;;;;;;;;;5014199;28;99037;-71
2022/06/17 15:11:58;;;;;;;7.23;1.80;;;;;;;;;;5011548;28;99965;-71
2022/06/17 15:14:25;;;;;;;3.40;1.50;;;;;;;;;;5015347;28;100306;-71
2022/06/17 15:16:53;;;;;;;3.08;1.40;;;;;;;;;;5011716;28;98895;-71
2022/06/17 15:19:22;;;;;;;6.10;1.88;;;;;;;;;;4997564;28;100159;-71